2J3

Louisville Municipal Airport

Louisville, Georgia, USA
METAR K2J3 161815Z AUTO 34006KT 10SM CLR 12/00 A3023 RMK AO2 T01211001
Observed Flight Rules
Jan-16 @ 18:15 UTC (25 minutes ago) Visual Flight Rules
Wind Visibility Clouds
340° at 6 knots 10 miles
  • Clear skies
Temperatures Readings
Current 12°C / 54°F
Dewpoint -0°C / 32°F
Humidity 44%
Altimeter 30.23" Hg
Pressure 1023.72 hPa
Elevation 100
METAR K2J3 161815Z AUTO 34006KT 10SM CLR 12/00 A3023 RMK AO2 T01211001
Observed Flight Rules
Jan-16 @ 18:15 UTC
(25 minutes ago)
VFR
Wind Visibility
340° at 6 knots 10 miles
Clouds
  • Clear skies
Temperature Dewpoint
12°C / 54°F -0°C / 32°F
Humidity Altimeter Pressure
44% 30.23" Hg 1023.72 hPa